Time;durP1;ratioP1;P1;durP2;ratioP2;P2;SDS_P1;SDS_P2;PMS_P1;PMS_P2;Temp;Humidity;BMP_temperature;BMP_pressure;BME280_temperature;BME280_humidity;BME280_pressure;Samples;Min_cycle;Max_cycle;Signal;HPM_P1;HPM_P2
2022/11/13 00:00:55;;;;;;;75.90;31.73;;;8.80;99.90;;;;;;4774360;30;20225;-77
2022/11/13 00:03:22;;;;;;;76.33;32.23;;;8.90;99.90;;;;;;4774411;30;20228;-77
2022/11/13 00:05:59;;;;;;;74.87;32.93;;;9.00;99.90;;;;;;4758551;30;20295;-77
2022/11/13 00:08:26;;;;;;;73.03;31.67;;;8.90;99.90;;;;;;4775302;30;20298;-79
2022/11/13 00:11:08;;;;;;;71.10;30.97;;;8.80;99.90;;;;;;4781987;30;20222;-84
2022/11/13 00:13:36;;;;;;;73.87;30.73;;;8.80;99.90;;;;;;4788339;29;20202;-88
2022/11/13 00:16:05;;;;;;;68.90;30.37;;;8.90;99.90;;;;;;4772323;30;20215;-90
2022/11/13 00:18:36;;;;;;;68.90;29.60;;;8.80;99.90;;;;;;4772355;30;20204;-90
2022/11/13 00:21:11;;;;;;;62.93;28.83;;;8.80;99.90;;;;;;4787731;29;20224;-82
2022/11/13 00:23:38;;;;;;;71.80;30.50;;;8.80;99.90;;;;;;4771815;30;20702;-76
2022/11/13 00:26:10;;;;;;;73.17;30.50;;;8.90;99.90;;;;;;4787770;29;20227;-76
2022/11/13 00:28:37;;;;;;;68.87;29.97;;;8.80;99.90;;;;;;4771958;30;20382;-78
2022/11/13 00:31:05;;;;;;;70.53;29.50;;;8.80;99.90;;;;;;4771602;30;20310;-83
2022/11/13 00:33:33;;;;;;;76.73;31.27;;;8.80;99.90;;;;;;4772120;30;20226;-80
2022/11/13 00:36:24;;;;;;;64.57;29.50;;;8.80;99.90;;;;;;4787738;29;20206;-77
2022/11/13 00:38:55;;;;;;;67.27;28.33;;;8.80;99.90;;;;;;4771691;30;20212;-75
2022/11/13 00:41:34;;;;;;;64.73;27.73;;;8.80;99.90;;;;;;4771717;30;20621;-75
2022/11/13 00:44:02;;;;;;;70.07;30.30;;;8.80;99.90;;;;;;4778689;29;20234;-76
2022/11/13 00:46:29;;;;;;;65.33;28.07;;;8.80;99.90;;;;;;4789291;29;20650;-77
2022/11/13 00:48:56;;;;;;;60.97;26.80;;;8.80;99.90;;;;;;4789425;29;20239;-76
2022/11/13 00:51:23;;;;;;;62.17;28.27;;;8.90;99.90;;;;;;4789312;29;20667;-73
2022/11/13 00:53:50;;;;;;;65.10;29.00;;;8.90;99.90;;;;;;4789182;29;20279;-80
2022/11/13 00:56:17;;;;;;;63.93;27.70;;;8.90;99.90;;;;;;4789450;29;20346;-77
2022/11/13 00:58:44;;;;;;;64.17;28.90;;;9.00;99.90;;;;;;4789573;29;20301;-77
2022/11/13 01:01:15;;;;;;;65.57;29.13;;;8.90;99.90;;;;;;4789312;29;20196;-79
2022/11/13 01:03:42;;;;;;;65.37;29.13;;;8.90;99.90;;;;;;4789336;29;20740;-82
2022/11/13 01:06:14;;;;;;;68.33;29.20;;;8.90;99.90;;;;;;4789439;29;20215;-82
2022/11/13 01:08:41;;;;;;;71.20;29.60;;;8.90;99.90;;;;;;4789818;29;20210;-85
2022/11/13 01:11:11;;;;;;;70.33;29.50;;;8.80;99.90;;;;;;4789276;29;20207;-76
2022/11/13 01:13:39;;;;;;;66.40;28.67;;;8.80;99.90;;;;;;4781986;30;20306;-80
2022/11/13 01:16:09;;;;;;;73.47;29.77;;;8.70;99.90;;;;;;4757516;30;20573;-82
2022/11/13 01:18:37;;;;;;;66.67;28.60;;;8.70;99.90;;;;;;4769917;30;20644;-83
2022/11/13 01:21:05;;;;;;;72.70;30.30;;;8.70;99.90;;;;;;4768459;30;20664;-78
2022/11/13 01:23:32;;;;;;;68.90;28.73;;;8.80;99.90;;;;;;4753367;30;20267;-82
2022/11/13 01:26:15;;;;;;;66.07;28.00;;;8.80;99.90;;;;;;4753386;30;20298;-83
2022/11/13 01:28:49;;;;;;;68.90;27.93;;;8.80;99.90;;;;;;4753844;30;20212;-83
2022/11/13 01:31:22;;;;;;;60.67;26.57;;;8.90;99.90;;;;;;4753349;30;20305;-86
2022/11/13 01:33:50;;;;;;;67.47;28.37;;;8.90;99.90;;;;;;4769749;30;20283;-76
2022/11/13 01:36:23;;;;;;;65.00;27.40;;;8.80;99.90;;;;;;4753493;30;20205;-82
2022/11/13 01:38:50;;;;;;;68.20;28.17;;;8.80;99.90;;;;;;4753555;30;20568;-78
2022/11/13 01:41:25;;;;;;;66.53;27.97;;;8.80;99.90;;;;;;4753136;30;20724;-78
2022/11/13 01:43:53;;;;;;;66.80;26.37;;;8.70;99.90;;;;;;4756151;30;20595;-76
2022/11/13 01:46:32;;;;;;;64.53;26.87;;;8.60;99.90;;;;;;4753221;30;20205;-79
2022/11/13 01:49:11;;;;;;;61.10;26.03;;;8.60;99.90;;;;;;4753726;30;20208;-75
2022/11/13 01:51:40;;;;;;;63.33;27.70;;;8.70;99.90;;;;;;4753196;30;20302;-79
2022/11/13 01:54:14;;;;;;;66.70;27.47;;;8.60;99.90;;;;;;4738251;30;20237;-81
2022/11/13 01:56:46;;;;;;;66.17;27.50;;;8.60;99.90;;;;;;4753106;30;20295;-75
2022/11/13 01:59:17;;;;;;;67.17;27.63;;;8.60;99.90;;;;;;4753155;30;20217;-87
2022/11/13 02:01:44;;;;;;;68.23;27.00;;;8.70;99.90;;;;;;4753325;30;20208;-82
2022/11/13 02:04:11;;;;;;;66.27;27.00;;;8.80;99.90;;;;;;4771225;30;20327;-77
2022/11/13 02:06:59;;;;;;;64.70;27.23;;;8.70;99.90;;;;;;4756598;30;20575;-78
2022/11/13 02:09:29;;;;;;;65.83;27.43;;;8.80;99.90;;;;;;4772578;30;20813;-85
2022/11/13 02:11:58;;;;;;;64.33;26.20;;;8.70;99.90;;;;;;4774075;30;20265;-87
2022/11/13 02:14:27;;;;;;;62.97;25.83;;;8.70;99.90;;;;;;4756999;30;20242;-79
2022/11/13 02:17:05;;;;;;;64.43;26.50;;;8.70;99.90;;;;;;4757297;30;20247;-85
2022/11/13 02:19:35;;;;;;;64.77;26.53;;;8.60;99.90;;;;;;4757017;30;20209;-88
2022/11/13 02:22:27;;;;;;;67.37;26.87;;;8.70;99.90;;;;;;4773281;30;20238;-86
2022/11/13 02:24:57;;;;;;;61.87;25.50;;;8.60;99.90;;;;;;4756859;30;20241;-77
2022/11/13 02:27:36;;;;;;;67.23;26.23;;;8.60;99.90;;;;;;4742125;30;20255;-78
2022/11/13 02:30:33;;;;;;;62.47;25.63;;;8.70;99.90;;;;;;4756474;30;20316;-78
2022/11/13 02:33:00;;;;;;;66.33;26.87;;;8.70;99.90;;;;;;4741757;30;20205;-77
2022/11/13 02:35:33;;;;;;;72.10;26.60;;;8.60;99.90;;;;;;4756792;30;20674;-88
2022/11/13 02:38:04;;;;;;;65.67;26.07;;;8.70;99.90;;;;;;4756973;30;20285;-78
2022/11/13 02:40:33;;;;;;;65.83;26.17;;;8.70;99.90;;;;;;4756692;30;20197;-80
2022/11/13 02:42:59;;;;;;;68.67;26.00;;;8.70;99.90;;;;;;4772158;30;20211;-81
2022/11/13 02:45:26;;;;;;;68.23;26.33;;;8.60;99.90;;;;;;4772321;30;20236;-81
2022/11/13 02:47:53;;;;;;;67.43;25.93;;;8.60;99.90;;;;;;4756330;30;20199;-81
2022/11/13 02:50:20;;;;;;;71.43;25.97;;;8.60;99.90;;;;;;4770836;30;20216;-78
2022/11/13 02:52:47;;;;;;;64.40;25.97;;;8.60;99.90;;;;;;4755929;30;20675;-77
2022/11/13 02:55:14;;;;;;;69.60;27.10;;;8.70;99.90;;;;;;4770724;30;20700;-81
2022/11/13 02:57:41;;;;;;;68.47;26.50;;;8.70;99.90;;;;;;4755953;30;20219;-77
2022/11/13 03:00:08;;;;;;;69.30;26.50;;;8.70;99.90;;;;;;4756119;30;20209;-78
2022/11/13 03:02:40;;;;;;;81.90;26.77;;;8.60;99.90;;;;;;4771593;30;20568;-79
2022/11/13 03:05:07;;;;;;;64.63;25.20;;;8.70;99.90;;;;;;4771401;30;20688;-78
2022/11/13 03:07:40;;;;;;;67.73;25.73;;;8.70;99.90;;;;;;4771643;30;20204;-80
2022/11/13 03:10:08;;;;;;;65.33;25.53;;;8.60;99.90;;;;;;4771497;30;20208;-79
2022/11/13 03:12:35;;;;;;;63.43;25.43;;;8.70;99.90;;;;;;4756141;30;20212;-79
2022/11/13 03:15:03;;;;;;;65.00;25.77;;;8.70;99.90;;;;;;4755231;30;20209;-78
2022/11/13 03:17:31;;;;;;;64.60;24.93;;;8.70;99.90;;;;;;4771657;30;20224;-84
2022/11/13 03:19:58;;;;;;;65.57;24.87;;;8.60;99.90;;;;;;4771887;30;20284;-79
2022/11/13 03:22:26;;;;;;;63.10;25.10;;;8.60;99.90;;;;;;4755499;30;20244;-83
2022/11/13 03:24:53;;;;;;;73.80;26.87;;;8.60;99.90;;;;;;4770381;30;20290;-83
2022/11/13 03:27:21;;;;;;;72.23;26.10;;;8.60;99.90;;;;;;4755582;30;20283;-79
2022/11/13 03:29:48;;;;;;;61.87;24.20;;;8.50;99.90;;;;;;4771051;30;20568;-81
2022/11/13 03:32:15;;;;;;;73.30;25.13;;;8.60;99.90;;;;;;4770054;30;20208;-82
2022/11/13 03:34:42;;;;;;;65.13;24.63;;;8.50;99.90;;;;;;4755054;30;20231;-81
2022/11/13 03:37:09;;;;;;;68.20;25.10;;;8.50;99.90;;;;;;4769797;30;20209;-82
2022/11/13 03:39:35;;;;;;;63.83;24.90;;;8.50;99.90;;;;;;4771044;30;20204;-82
2022/11/13 03:42:02;;;;;;;64.10;23.73;;;8.60;99.90;;;;;;4769832;30;20205;-83
2022/11/13 03:44:29;;;;;;;62.70;22.80;;;8.50;99.90;;;;;;4754886;30;20228;-82
2022/11/13 03:46:56;;;;;;;60.87;23.20;;;8.50;99.90;;;;;;4770230;30;20197;-79
2022/11/13 03:49:23;;;;;;;61.67;24.97;;;8.60;99.90;;;;;;4771373;30;20224;-82
2022/11/13 03:51:50;;;;;;;58.67;22.23;;;8.50;99.90;;;;;;4771214;30;20196;-80
2022/11/13 03:54:17;;;;;;;61.73;23.70;;;8.60;99.90;;;;;;4770482;30;20237;-84
2022/11/13 03:56:44;;;;;;;67.53;24.70;;;8.60;99.90;;;;;;4755085;30;20204;-84
2022/11/13 03:59:11;;;;;;;60.00;22.43;;;8.50;99.90;;;;;;4754746;30;20209;-82
2022/11/13 04:01:37;;;;;;;59.27;22.27;;;8.50;99.90;;;;;;4769881;30;20215;-77
2022/11/13 04:04:04;;;;;;;59.53;21.93;;;8.50;99.90;;;;;;4754515;30;20236;-78
2022/11/13 04:06:31;;;;;;;60.03;23.23;;;8.50;99.90;;;;;;4754570;30;20206;-81
2022/11/13 04:08:58;;;;;;;63.30;23.00;;;8.50;99.90;;;;;;4770684;30;20209;-77
2022/11/13 04:11:25;;;;;;;61.70;23.27;;;8.60;99.90;;;;;;4770225;30;20231;-79
2022/11/13 04:13:52;;;;;;;63.40;23.13;;;8.60;99.90;;;;;;4769439;30;20215;-78
2022/11/13 04:16:18;;;;;;;55.20;22.90;;;8.60;99.90;;;;;;4769857;30;20328;-82
2022/11/13 04:18:45;;;;;;;58.00;22.73;;;8.50;99.90;;;;;;4770663;30;20544;-82
2022/11/13 04:21:12;;;;;;;54.07;21.20;;;8.50;99.90;;;;;;4754847;30;20201;-77
2022/11/13 04:23:39;;;;;;;64.03;23.00;;;8.50;99.90;;;;;;4768883;30;20625;-83
2022/11/13 04:26:06;;;;;;;60.87;23.43;;;8.50;99.90;;;;;;4769828;30;20311;-79
2022/11/13 04:28:33;;;;;;;59.83;22.33;;;8.60;99.90;;;;;;4754124;30;20663;-78
2022/11/13 04:30:59;;;;;;;68.13;23.73;;;8.60;99.90;;;;;;4754527;30;20211;-81
2022/11/13 04:33:26;;;;;;;55.10;21.67;;;8.50;99.90;;;;;;4770155;30;20598;-81
2022/11/13 04:35:53;;;;;;;66.73;23.23;;;8.40;99.90;;;;;;4768975;30;20257;-82
2022/11/13 04:38:20;;;;;;;65.73;23.40;;;8.40;99.90;;;;;;4754164;30;20217;-83
2022/11/13 04:42:47;;;;;;;66.70;23.53;;;8.50;99.90;;;;;;4768957;30;20580;-77
2022/11/13 04:43:37;;;;;;;64.33;22.63;;;8.40;99.90;;;;;;4769953;30;20254;-79
2022/11/13 04:46:04;;;;;;;63.10;23.13;;;8.50;99.90;;;;;;4753906;30;20211;-78
2022/11/13 04:48:31;;;;;;;70.03;24.73;;;8.40;99.90;;;;;;4770725;30;20222;-83
2022/11/13 04:50:58;;;;;;;66.20;23.70;;;8.40;99.90;;;;;;4768982;30;20207;-77
2022/11/13 04:53:25;;;;;;;62.40;23.37;;;8.40;99.90;;;;;;4769926;30;20255;-80
2022/11/13 04:55:52;;;;;;;61.27;22.53;;;8.40;99.90;;;;;;4769713;30;20232;-77
2022/11/13 04:58:19;;;;;;;70.80;24.80;;;8.40;99.90;;;;;;4753872;30;20662;-82
2022/11/13 05:00:46;;;;;;;65.10;22.67;;;8.50;99.90;;;;;;4753868;30;20672;-78
2022/11/13 05:03:13;;;;;;;61.07;22.80;;;8.40;99.90;;;;;;4753933;30;20218;-80
2022/11/13 05:05:40;;;;;;;61.60;23.10;;;8.40;99.90;;;;;;4753857;30;20232;-85
2022/11/13 05:08:07;;;;;;;69.43;23.80;;;8.40;99.90;;;;;;4753965;30;20215;-84
2022/11/13 05:10:33;;;;;;;63.43;23.67;;;8.40;99.90;;;;;;4754011;30;20663;-84
2022/11/13 05:13:00;;;;;;;65.83;23.03;;;8.40;99.90;;;;;;4753910;30;20212;-85
2022/11/13 05:15:27;;;;;;;63.73;22.33;;;8.40;99.90;;;;;;4769824;30;20224;-84
2022/11/13 05:17:54;;;;;;;64.23;23.00;;;8.40;99.90;;;;;;4755268;30;20680;-84
2022/11/13 05:20:21;;;;;;;64.33;22.43;;;8.50;99.90;;;;;;4754032;30;20659;-83
2022/11/13 05:22:49;;;;;;;64.83;23.70;;;8.50;99.90;;;;;;4769217;30;20211;-77
2022/11/13 05:25:16;;;;;;;64.57;23.10;;;8.50;99.90;;;;;;4769612;30;20220;-83
2022/11/13 05:27:43;;;;;;;64.00;23.23;;;8.50;99.90;;;;;;4768402;30;20574;-82
2022/11/13 05:30:10;;;;;;;64.20;23.03;;;8.60;99.90;;;;;;4753715;30;20208;-78
2022/11/13 05:32:37;;;;;;;60.77;22.23;;;8.50;99.90;;;;;;4753627;30;20218;-78
2022/11/13 05:35:04;;;;;;;59.40;21.93;;;8.50;99.90;;;;;;4753510;30;20204;-77
2022/11/13 05:37:31;;;;;;;66.33;23.60;;;8.60;99.90;;;;;;4769998;30;20204;-80
2022/11/13 05:39:58;;;;;;;60.57;22.93;;;8.60;99.90;;;;;;4757216;30;20204;-79
2022/11/13 05:42:24;;;;;;;59.23;21.77;;;8.60;99.90;;;;;;4757016;30;20222;-78
2022/11/13 05:44:51;;;;;;;58.20;22.30;;;8.50;99.90;;;;;;4771412;30;20671;-79
2022/11/13 05:47:18;;;;;;;60.37;21.67;;;8.60;99.90;;;;;;4756975;30;20208;-77
2022/11/13 05:49:45;;;;;;;69.67;23.93;;;8.70;99.90;;;;;;4757023;30;20649;-78
2022/11/13 05:52:12;;;;;;;61.13;22.93;;;8.70;99.90;;;;;;4771679;30;20208;-77
2022/11/13 05:54:38;;;;;;;60.70;22.93;;;8.70;99.90;;;;;;4757128;30;20227;-78
2022/11/13 05:57:05;;;;;;;56.47;22.67;;;8.70;99.90;;;;;;4772799;30;20261;-78
2022/11/13 05:59:32;;;;;;;63.97;22.23;;;8.60;99.90;;;;;;4756560;30;20656;-78
2022/11/13 06:01:59;;;;;;;58.90;21.80;;;8.60;99.90;;;;;;4772917;30;20567;-79
2022/11/13 06:04:26;;;;;;;60.37;22.03;;;8.70;99.90;;;;;;4772667;30;20258;-79
2022/11/13 06:06:52;;;;;;;62.13;22.80;;;8.60;99.90;;;;;;4771490;30;20205;-81
2022/11/13 06:09:19;;;;;;;58.10;21.87;;;8.50;99.90;;;;;;4771329;30;20251;-81
2022/11/13 06:11:47;;;;;;;56.30;21.77;;;8.60;99.90;;;;;;4756426;30;20208;-80
2022/11/13 06:14:14;;;;;;;63.30;23.90;;;8.70;99.90;;;;;;4772829;30;20197;-83
2022/11/13 06:16:41;;;;;;;55.40;22.47;;;8.70;99.90;;;;;;4771345;30;20216;-87
2022/11/13 06:19:09;;;;;;;57.37;21.87;;;8.70;99.90;;;;;;4772743;30;20208;-80
2022/11/13 06:21:39;;;;;;;60.50;21.87;;;8.80;99.90;;;;;;4756542;30;20670;-81
2022/11/13 06:24:07;;;;;;;52.20;19.47;;;8.70;99.90;;;;;;4772439;30;20285;-84
2022/11/13 06:26:35;;;;;;;49.63;19.03;;;8.60;99.90;;;;;;4756697;30;20561;-82
2022/11/13 06:29:03;;;;;;;51.17;19.20;;;8.60;99.90;;;;;;4756570;30;20644;-83
2022/11/13 06:31:33;;;;;;;50.10;19.13;;;8.50;99.90;;;;;;4756686;30;20228;-76
2022/11/13 06:34:01;;;;;;;48.27;17.93;;;8.60;99.90;;;;;;4772157;30;20608;-78
2022/11/13 06:36:31;;;;;;;49.60;18.20;;;8.60;99.90;;;;;;4755959;30;20213;-76
2022/11/13 06:38:58;;;;;;;51.90;18.83;;;8.50;99.90;;;;;;4772214;30;20216;-78
2022/11/13 06:41:31;;;;;;;44.07;17.30;;;8.60;99.90;;;;;;4770495;30;20296;-79
2022/11/13 06:43:59;;;;;;;41.87;16.60;;;8.50;99.90;;;;;;4755870;30;20212;-77
2022/11/13 06:46:29;;;;;;;43.93;16.67;;;8.50;99.90;;;;;;4771921;30;20307;-76
2022/11/13 06:48:56;;;;;;;46.30;17.40;;;8.60;99.90;;;;;;4755852;30;20203;-76
2022/11/13 06:51:27;;;;;;;38.37;15.83;;;8.50;99.90;;;;;;4771333;30;20216;-80
2022/11/13 06:53:55;;;;;;;43.50;15.67;;;8.50;99.90;;;;;;4752873;30;20249;-80
2022/11/13 06:56:22;;;;;;;41.90;16.60;;;8.50;99.90;;;;;;4752687;30;20202;-77
2022/11/13 06:58:49;;;;;;;44.97;17.40;;;8.60;99.90;;;;;;4752746;30;20206;-76
2022/11/13 07:01:19;;;;;;;39.30;15.83;;;8.60;99.90;;;;;;4753952;30;20216;-77
2022/11/13 07:03:46;;;;;;;44.80;17.33;;;8.60;99.90;;;;;;4754052;30;20198;-77
2022/11/13 07:06:16;;;;;;;40.57;16.90;;;8.60;99.90;;;;;;4752493;30;20742;-81
2022/11/13 07:08:45;;;;;;;44.20;17.20;;;8.70;99.90;;;;;;4767522;30;20314;-80
2022/11/13 07:11:20;;;;;;;37.00;15.27;;;8.80;99.90;;;;;;4767356;30;20575;-81
2022/11/13 07:13:47;;;;;;;35.13;15.07;;;8.60;99.90;;;;;;4767261;30;20773;-81
2022/11/13 07:16:15;;;;;;;41.07;15.47;;;8.60;99.90;;;;;;4767234;30;20205;-81
2022/11/13 07:18:53;;;;;;;37.97;14.83;;;8.70;99.90;;;;;;4767036;30;20216;-80
2022/11/13 07:21:21;;;;;;;38.83;14.80;;;8.70;99.90;;;;;;4752216;30;20213;-81
2022/11/13 07:23:48;;;;;;;38.17;13.93;;;8.70;99.90;;;;;;4752516;30;20697;-80
2022/11/13 07:26:16;;;;;;;35.33;13.67;;;8.70;99.90;;;;;;4753309;30;20644;-80
2022/11/13 07:28:42;;;;;;;32.03;13.17;;;8.70;99.90;;;;;;4752615;30;20571;-80
2022/11/13 07:31:11;;;;;;;35.17;12.47;;;8.80;99.90;;;;;;4751926;30;20213;-81
2022/11/13 07:33:38;;;;;;;30.30;12.23;;;8.80;99.90;;;;;;4752115;30;20675;-81
2022/11/13 07:36:07;;;;;;;28.43;10.90;;;8.80;99.90;;;;;;4753638;30;20237;-80
2022/11/13 07:38:34;;;;;;;22.40;9.47;;;8.80;99.90;;;;;;4752173;30;20213;-80
2022/11/13 07:41:00;;;;;;;24.73;10.30;;;8.70;99.90;;;;;;4751823;30;20212;-78
2022/11/13 07:43:27;;;;;;;23.13;9.63;;;8.60;99.90;;;;;;4752090;30;20660;-77
2022/11/13 07:45:57;;;;;;;26.27;10.03;;;8.60;99.90;;;;;;4753257;30;20239;-77
2022/11/13 07:48:26;;;;;;;24.17;9.00;;;8.60;99.90;;;;;;4766877;30;20208;-77
2022/11/13 07:50:54;;;;;;;24.93;9.77;;;8.70;99.90;;;;;;4751897;30;20212;-79
2022/11/13 07:53:22;;;;;;;20.93;8.93;;;8.70;99.90;;;;;;4751541;30;20260;-79
2022/11/13 07:56:02;;;;;;;22.83;8.77;;;8.70;99.90;;;;;;4737674;30;20229;-79
2022/11/13 07:58:35;;;;;;;20.17;9.10;;;8.60;99.90;;;;;;4766695;30;20291;-79
2022/11/13 08:01:05;;;;;;;22.33;8.77;;;8.60;99.90;;;;;;4766065;30;20217;-78
2022/11/13 08:03:32;;;;;;;23.87;8.47;;;8.60;99.90;;;;;;4753038;30;20223;-79
2022/11/13 08:06:04;;;;;;;24.50;9.57;;;8.60;99.90;;;;;;4751611;30;20247;-79
2022/11/13 08:08:31;;;;;;;17.93;7.53;;;8.80;99.90;;;;;;4737560;30;20300;-79
2022/11/13 08:11:01;;;;;;;18.80;7.93;;;8.80;99.90;;;;;;4766412;30;20220;-80
2022/11/13 08:13:28;;;;;;;19.70;8.30;;;8.80;99.90;;;;;;4753280;30;20228;-81
2022/11/13 08:15:59;;;;;;;17.47;7.57;;;8.80;99.90;;;;;;4752719;30;20211;-79
2022/11/13 08:18:27;;;;;;;17.47;7.73;;;8.80;99.90;;;;;;4753096;30;20209;-79
2022/11/13 08:20:55;;;;;;;17.77;8.37;;;8.80;99.90;;;;;;4766400;30;20209;-79
2022/11/13 08:23:22;;;;;;;27.47;8.80;;;8.80;99.90;;;;;;4751785;30;20199;-80
2022/11/13 08:25:49;;;;;;;23.03;8.60;;;8.90;99.90;;;;;;4751049;30;20336;-80
2022/11/13 08:28:16;;;;;;;19.57;7.83;;;8.90;99.90;;;;;;4751465;30;20307;-81
2022/11/13 08:30:44;;;;;;;18.17;8.07;;;8.90;99.90;;;;;;4751575;30;20260;-80
2022/11/13 08:33:12;;;;;;;22.90;8.70;;;8.90;99.90;;;;;;4751251;30;20237;-79
2022/11/13 08:35:39;;;;;;;24.60;8.37;;;8.90;99.90;;;;;;4751152;30;20255;-81
2022/11/13 08:38:07;;;;;;;20.50;8.53;;;8.90;99.90;;;;;;4751413;30;20271;-81
2022/11/13 08:40:35;;;;;;;18.83;8.10;;;8.80;99.90;;;;;;4766256;30;20216;-81
2022/11/13 08:43:03;;;;;;;20.00;8.83;;;8.90;99.90;;;;;;4751187;30;20206;-81
2022/11/13 08:45:30;;;;;;;18.83;7.80;;;8.90;99.90;;;;;;4752483;30;20729;-82
2022/11/13 08:48:02;;;;;;;17.50;8.03;;;8.90;99.90;;;;;;4751214;30;20214;-81
2022/11/13 08:50:30;;;;;;;25.03;8.67;;;8.90;99.90;;;;;;4766144;30;20668;-80
2022/11/13 08:52:58;;;;;;;19.10;8.70;;;9.00;99.90;;;;;;4751175;30;20240;-79
2022/11/13 08:55:26;;;;;;;25.13;9.00;;;9.00;99.90;;;;;;4750932;30;20236;-79
2022/11/13 08:57:53;;;;;;;21.23;9.03;;;9.00;99.90;;;;;;4752765;30;20239;-80
2022/11/13 09:00:20;;;;;;;23.67;9.87;;;8.90;99.90;;;;;;4751222;30;20213;-80
2022/11/13 09:02:47;;;;;;;26.10;10.23;;;8.90;99.90;;;;;;4765872;30;20221;-79
2022/11/13 09:05:14;;;;;;;26.37;10.30;;;8.90;99.90;;;;;;4750803;30;20267;-80
2022/11/13 09:07:40;;;;;;;25.63;11.23;;;9.00;99.90;;;;;;4766173;30;20212;-79
2022/11/13 09:10:08;;;;;;;29.60;11.70;;;9.10;99.90;;;;;;4751249;30;20213;-80
2022/11/13 09:12:35;;;;;;;30.07;12.23;;;9.10;99.90;;;;;;4767463;30;20564;-79
2022/11/13 09:15:01;;;;;;;29.27;11.90;;;9.20;99.90;;;;;;4754324;30;20215;-77
2022/11/13 09:17:28;;;;;;;29.13;11.13;;;9.30;99.90;;;;;;4754694;30;20304;-79
2022/11/13 09:19:56;;;;;;;28.37;12.20;;;9.40;99.90;;;;;;4755816;30;20233;-78
2022/11/13 09:22:29;;;;;;;31.57;12.27;;;9.30;99.90;;;;;;4754968;30;20204;-78
2022/11/13 09:24:56;;;;;;;30.73;12.20;;;9.30;99.90;;;;;;4755426;30;20252;-78
2022/11/13 09:27:23;;;;;;;29.30;12.40;;;9.40;99.90;;;;;;4754342;30;20270;-78
2022/11/13 09:29:50;;;;;;;32.87;13.03;;;9.40;99.90;;;;;;4755081;30;20225;-77
2022/11/13 09:32:21;;;;;;;33.20;12.43;;;9.50;99.90;;;;;;4754606;30;20209;-77
2022/11/13 09:34:48;;;;;;;25.93;11.80;;;9.50;99.90;;;;;;4755586;30;20217;-77
2022/11/13 09:37:15;;;;;;;27.03;11.13;;;9.50;99.90;;;;;;4755625;30;20201;-77
2022/11/13 09:39:42;;;;;;;23.80;9.93;;;9.50;99.90;;;;;;4769154;30;20245;-77
2022/11/13 09:42:23;;;;;;;24.60;10.37;;;9.50;99.90;;;;;;4754089;30;20235;-77
2022/11/13 09:45:09;;;;;;;28.03;10.23;;;9.50;99.90;;;;;;4739094;30;20237;-78
2022/11/13 09:47:42;;;;;;;21.00;9.33;;;9.50;99.90;;;;;;4755428;30;20557;-79
2022/11/13 09:50:25;;;;;;;21.27;9.07;;;9.50;99.90;;;;;;4753931;30;20283;-78
2022/11/13 09:52:53;;;;;;;17.27;8.20;;;9.50;99.90;;;;;;4753839;30;20683;-78
2022/11/13 09:55:30;;;;;;;21.80;9.03;;;9.50;99.90;;;;;;4753680;30;20268;-78
2022/11/13 09:58:21;;;;;;;18.33;8.90;;;9.50;99.90;;;;;;4755197;30;20201;-78
2022/11/13 10:00:48;;;;;;;19.47;8.73;;;9.50;99.90;;;;;;4754043;30;20574;-77
2022/11/13 10:03:28;;;;;;;20.10;9.00;;;9.50;99.90;;;;;;4754861;30;20208;-79
2022/11/13 10:06:22;;;;;;;20.90;9.07;;;9.60;99.90;;;;;;4754767;30;20232;-79
2022/11/13 10:09:00;;;;;;;24.33;9.67;;;9.60;99.90;;;;;;4739628;30;20213;-78
2022/11/13 10:11:39;;;;;;;17.43;8.17;;;9.70;99.90;;;;;;4753671;30;20235;-79
2022/11/13 10:14:19;;;;;;;19.87;8.67;;;9.70;99.90;;;;;;4753707;30;20215;-79
2022/11/13 10:17:01;;;;;;;20.60;8.97;;;9.60;99.90;;;;;;4753143;30;20206;-79
2022/11/13 10:19:50;;;;;;;20.77;8.97;;;9.70;99.90;;;;;;4753468;30;20565;-80
2022/11/13 10:22:17;;;;;;;18.47;8.60;;;9.70;99.90;;;;;;4753240;30;20208;-79
2022/11/13 10:25:16;;;;;;;21.33;8.73;;;9.70;99.90;;;;;;4752328;30;20202;-80
2022/11/13 10:27:56;;;;;;;18.00;8.70;;;9.80;99.90;;;;;;4753167;30;20220;-80
2022/11/13 10:33:49;;;;;;;18.93;8.83;;;9.70;99.90;;;;;;4754487;30;20561;-79
2022/11/13 10:36:28;;;;;;;29.10;9.57;;;9.70;99.90;;;;;;4753221;30;20206;-78
2022/11/13 10:39:05;;;;;;;22.27;9.27;;;9.70;99.90;;;;;;4768133;30;20206;-79
2022/11/13 10:42:01;;;;;;;22.30;9.67;;;9.80;99.90;;;;;;4753162;30;20221;-79
2022/11/13 10:44:32;;;;;;;18.77;9.03;;;9.90;99.90;;;;;;4751683;30;20212;-78
2022/11/13 10:47:14;;;;;;;23.47;9.57;;;9.90;99.90;;;;;;4754291;30;20221;-78
2022/11/13 10:49:41;;;;;;;19.53;9.57;;;9.80;99.90;;;;;;4752801;30;20236;-78
2022/11/13 10:52:21;;;;;;;20.57;10.20;;;9.80;99.90;;;;;;4753059;30;20292;-79
2022/11/13 10:54:49;;;;;;;20.57;9.93;;;9.80;99.90;;;;;;4752981;30;20599;-80
2022/11/13 10:57:33;;;;;;;20.23;9.10;;;9.80;99.90;;;;;;4767416;30;20206;-80
2022/11/13 11:00:00;;;;;;;20.00;9.80;;;9.90;99.90;;;;;;4738191;30;20205;-80
2022/11/13 11:02:28;;;;;;;20.53;9.80;;;9.90;99.90;;;;;;4752923;30;20559;-80
2022/11/13 11:05:05;;;;;;;18.37;9.87;;;10.00;99.90;;;;;;4767053;30;20236;-81
2022/11/13 11:07:41;;;;;;;19.97;10.13;;;9.90;99.90;;;;;;4753813;30;20263;-80
2022/11/13 11:10:35;;;;;;;20.40;9.80;;;9.80;99.90;;;;;;4752538;30;20232;-79
2022/11/13 11:13:19;;;;;;;22.93;10.70;;;9.90;99.90;;;;;;4752715;30;20631;-79
2022/11/13 11:16:02;;;;;;;21.27;10.33;;;9.80;99.90;;;;;;4753560;30;20209;-81
2022/11/13 11:18:41;;;;;;;24.13;11.17;;;9.80;99.90;;;;;;4752333;30;20220;-80
2022/11/13 11:21:14;;;;;;;23.57;11.00;;;9.80;99.90;;;;;;4752174;30;20307;-80
2022/11/13 11:24:01;;;;;;;22.63;9.97;;;9.90;99.90;;;;;;4752269;30;20661;-80
2022/11/13 11:26:37;;;;;;;18.53;9.43;;;9.80;99.90;;;;;;4752196;30;20247;-81
2022/11/13 11:29:27;;;;;;;19.57;9.17;;;9.80;99.90;;;;;;4751987;30;20193;-80
2022/11/13 11:32:14;;;;;;;20.00;9.83;;;9.70;99.90;;;;;;4752268;30;20210;-81
2022/11/13 11:34:46;;;;;;;21.67;10.13;;;9.80;99.90;;;;;;4751962;30;20205;-79
2022/11/13 11:37:13;;;;;;;22.27;9.60;;;10.00;99.90;;;;;;4736473;30;20206;-79
2022/11/13 11:39:52;;;;;;;22.20;9.87;;;10.00;99.90;;;;;;4753328;30;20212;-81
2022/11/13 11:42:25;;;;;;;18.93;9.63;;;10.20;99.90;;;;;;4752328;30;20216;-79
2022/11/13 11:44:54;;;;;;;21.03;10.43;;;10.30;99.90;;;;;;4752046;30;20206;-79
2022/11/13 11:47:21;;;;;;;19.10;9.50;;;10.40;99.90;;;;;;4751920;30;20588;-80
2022/11/13 11:49:48;;;;;;;18.00;9.67;;;10.50;99.90;;;;;;4753234;30;20533;-80
2022/11/13 11:52:35;;;;;;;21.83;9.40;;;10.40;99.90;;;;;;4753058;30;20728;-78
2022/11/13 11:55:27;;;;;;;19.93;9.77;;;10.50;99.90;;;;;;4754536;30;20243;-79
2022/11/13 11:58:15;;;;;;;21.10;10.20;;;10.40;99.90;;;;;;4770957;30;20228;-79
2022/11/13 12:00:52;;;;;;;19.77;10.17;;;10.30;99.90;;;;;;4754868;30;20237;-79
2022/11/13 12:03:35;;;;;;;23.17;10.43;;;10.30;99.90;;;;;;4754515;30;20211;-79
2022/11/13 12:06:17;;;;;;;22.77;11.33;;;10.30;99.90;;;;;;4754504;30;20576;-79
2022/11/13 12:09:21;;;;;;;21.97;9.77;;;10.30;99.90;;;;;;4770308;30;20201;-79
2022/11/13 12:12:15;;;;;;;19.47;9.97;;;10.20;99.90;;;;;;4754247;30;20305;-79
2022/11/13 12:15:01;;;;;;;23.57;10.73;;;10.20;99.90;;;;;;4754831;30;20196;-79
2022/11/13 12:17:37;;;;;;;23.03;11.37;;;10.10;99.90;;;;;;4754504;30;20636;-79
2022/11/13 12:20:27;;;;;;;20.97;10.47;;;10.10;99.90;;;;;;4754404;30;20212;-79
2022/11/13 12:23:13;;;;;;;20.30;10.23;;;10.20;99.90;;;;;;4754605;30;20209;-79
2022/11/13 12:26:30;;;;;;;22.40;10.40;;;10.20;99.90;;;;;;4754048;30;20315;-78
2022/11/13 12:29:21;;;;;;;24.33;11.17;;;10.20;99.90;;;;;;4735626;30;20231;-77
2022/11/13 12:32:16;;;;;;;23.50;10.73;;;10.20;99.90;;;;;;4750588;30;20213;-79
2022/11/13 12:34:50;;;;;;;22.80;11.03;;;10.20;99.90;;;;;;4735484;30;20300;-81
2022/11/13 12:37:48;;;;;;;22.27;11.20;;;10.30;99.90;;;;;;4735690;30;20209;-81
2022/11/13 12:40:23;;;;;;;23.83;11.17;;;10.20;99.90;;;;;;4750213;30;20202;-80
2022/11/13 12:43:03;;;;;;;22.57;11.43;;;10.20;99.90;;;;;;4750051;30;20215;-80
2022/11/13 12:45:36;;;;;;;24.70;11.63;;;10.20;99.90;;;;;;4750075;30;20212;-80
2022/11/13 12:48:15;;;;;;;24.90;11.60;;;10.30;99.90;;;;;;4749786;30;20216;-80
2022/11/13 12:50:59;;;;;;;23.47;12.00;;;10.30;99.90;;;;;;4735714;30;20213;-80
2022/11/13 12:53:29;;;;;;;28.53;11.97;;;10.30;99.90;;;;;;4750106;30;20324;-80
2022/11/13 12:56:00;;;;;;;22.40;11.73;;;10.30;99.90;;;;;;4749889;30;20221;-80
2022/11/13 12:58:30;;;;;;;23.90;11.77;;;10.30;99.90;;;;;;4735623;30;20253;-80
2022/11/13 13:01:09;;;;;;;23.63;11.33;;;10.30;99.90;;;;;;4750474;30;20711;-80
2022/11/13 13:04:12;;;;;;;25.57;12.50;;;10.30;99.90;;;;;;4737052;30;20671;-80